OLBA/BEY METAR and TAF weather

Enter ICAO airport designator
Station Type Date Time Source
OLBA METAR 2022/01/26 14:00 UTC NOAA

OLBA 261400Z 15009KT 3000 TSRA FEW020CB BKN025 10/05 Q1010 NOSIG


Station Type Date Time Source
OLBA Decoded METAR 2022/01/26 14:00 UTC NOAA

Beyrouth Aeroport , Lebanon (OLBA) 33-49N 035-29E 19M
Jan 26, 2022 - 09:00 AM EST / 2022.01.26 1400 UTC
Wind: from the SSE (150 degrees) at 10 MPH (9 KT):0
Visibility: 1 mile(s):0
Sky conditions: mostly cloudy
Weather: rain with thunder; Cumulonimbus clouds observed
Temperature: 50 F (10 C)
Dew Point: 41 F (5 C)
Relative Humidity: 71%
Pressure (altimeter): 29.83 in. Hg (1010 hPa)
ob: OLBA 261400Z 15009KT 3000 TSRA FEW020CB BKN025 10/05 Q1010 NOSIG
cycle: 14

Station Type Date Time Source
OLBA TAF 2022/01/26 12:57 UTC NOAA

TAF TAF OLBA 261000Z 2612/2718 25015G35KT 5000 RA BKN022
TEMPO 2612/2718 3000 TSRA FEW020CB OVC023

Example: see airport list